sensor_id;sensor_type;location;lat;lon;timestamp;pressure;altitude;pressure_sealevel;temperature;humidity
43480;BME280;29067;35.492;-97.520;2023-09-19T00:01:33;96900.97;;;31.12;22.69
43480;BME280;29067;35.492;-97.520;2023-09-19T00:04:01;96897.32;;;31.25;20.33
43480;BME280;29067;35.492;-97.520;2023-09-19T00:06:30;96892.69;;;31.51;20.22
43480;BME280;29067;35.492;-97.520;2023-09-19T00:08:58;96894.21;;;29.81;21.61
43480;BME280;29067;35.492;-97.520;2023-09-19T00:11:26;96889.94;;;30.96;21.21
43480;BME280;29067;35.492;-97.520;2023-09-19T00:13:55;96886.74;;;30.12;21.57
43480;BME280;29067;35.492;-97.520;2023-09-19T00:16:24;96888.37;;;29.77;21.96
43480;BME280;29067;35.492;-97.520;2023-09-19T00:18:52;96887.43;;;29.91;21.92
43480;BME280;29067;35.492;-97.520;2023-09-19T00:21:20;96892.85;;;29.61;22.28
43480;BME280;29067;35.492;-97.520;2023-09-19T00:23:48;96893.54;;;29.16;22.66
43480;BME280;29067;35.492;-97.520;2023-09-19T00:26:17;96895.49;;;29.10;22.95
43480;BME280;29067;35.492;-97.520;2023-09-19T00:28:45;96891.90;;;29.25;22.56
43480;BME280;29067;35.492;-97.520;2023-09-19T00:31:13;96895.89;;;29.85;22.28
43480;BME280;29067;35.492;-97.520;2023-09-19T00:33:42;96894.83;;;28.95;22.46
43480;BME280;29067;35.492;-97.520;2023-09-19T00:36:10;96898.78;;;28.19;23.00
43480;BME280;29067;35.492;-97.520;2023-09-19T00:38:38;96899.62;;;29.42;22.39
43480;BME280;29067;35.492;-97.520;2023-09-19T00:41:07;96900.45;;;29.23;22.52
43480;BME280;29067;35.492;-97.520;2023-09-19T00:43:35;96894.42;;;30.10;21.97
43480;BME280;29067;35.492;-97.520;2023-09-19T00:46:03;96888.08;;;30.43;21.96
43480;BME280;29067;35.492;-97.520;2023-09-19T00:48:32;96891.17;;;29.12;22.50
43480;BME280;29067;35.492;-97.520;2023-09-19T00:51:06;96887.61;;;29.94;22.09
43480;BME280;29067;35.492;-97.520;2023-09-19T00:53:34;96887.24;;;29.96;22.22
43480;BME280;29067;35.492;-97.520;2023-09-19T00:56:03;96888.47;;;30.12;22.09
43480;BME280;29067;35.492;-97.520;2023-09-19T00:58:31;96884.65;;;30.30;22.65
43480;BME280;29067;35.492;-97.520;2023-09-19T01:00:59;96890.81;;;29.48;22.65
43480;BME280;29067;35.492;-97.520;2023-09-19T01:03:28;96894.49;;;28.93;22.13
43480;BME280;29067;35.492;-97.520;2023-09-19T01:05:56;96889.77;;;29.92;22.07
43480;BME280;29067;35.492;-97.520;2023-09-19T01:08:24;96890.79;;;28.82;22.28
43480;BME280;29067;35.492;-97.520;2023-09-19T01:10:59;96887.08;;;29.39;22.05
43480;BME280;29067;35.492;-97.520;2023-09-19T01:13:34;96884.04;;;30.32;21.72
43480;BME280;29067;35.492;-97.520;2023-09-19T01:16:10;96881.16;;;29.69;21.67
43480;BME280;29067;35.492;-97.520;2023-09-19T01:18:47;96883.06;;;30.23;21.71
43480;BME280;29067;35.492;-97.520;2023-09-19T01:21:26;96882.09;;;30.13;21.61
43480;BME280;29067;35.492;-97.520;2023-09-19T01:24:16;96881.69;;;30.02;21.92
43480;BME280;29067;35.492;-97.520;2023-09-19T01:27:16;96883.80;;;30.16;21.52
43480;BME280;29067;35.492;-97.520;2023-09-19T01:29:47;96885.40;;;30.08;22.63
43480;BME280;29067;35.492;-97.520;2023-09-19T01:32:18;96886.71;;;30.45;22.29
43480;BME280;29067;35.492;-97.520;2023-09-19T01:34:49;96892.67;;;29.01;22.79
43480;BME280;29067;35.492;-97.520;2023-09-19T01:37:19;96894.76;;;29.17;23.00
43480;BME280;29067;35.492;-97.520;2023-09-19T01:39:50;96897.84;;;29.88;22.87
43480;BME280;29067;35.492;-97.520;2023-09-19T01:42:28;96903.11;;;29.16;22.96
43480;BME280;29067;35.492;-97.520;2023-09-19T01:45:06;96906.95;;;28.50;23.35
43480;BME280;29067;35.492;-97.520;2023-09-19T01:47:41;96906.89;;;27.84;23.73
43480;BME280;29067;35.492;-97.520;2023-09-19T01:50:17;96907.94;;;28.23;23.76
43480;BME280;29067;35.492;-97.520;2023-09-19T01:52:51;96907.22;;;27.87;23.84
43480;BME280;29067;35.492;-97.520;2023-09-19T01:55:22;96910.89;;;28.62;23.61
43480;BME280;29067;35.492;-97.520;2023-09-19T01:58:01;96910.27;;;27.86;24.39
43480;BME280;29067;35.492;-97.520;2023-09-19T02:00:36;96911.29;;;28.46;24.19
43480;BME280;29067;35.492;-97.520;2023-09-19T02:03:06;96917.51;;;27.05;25.32
43480;BME280;29067;35.492;-97.520;2023-09-19T02:05:34;96914.60;;;27.88;24.46
43480;BME280;29067;35.492;-97.520;2023-09-19T02:08:03;96916.32;;;28.24;24.27
43480;BME280;29067;35.492;-97.520;2023-09-19T02:10:31;96917.32;;;27.49;24.75
43480;BME280;29067;35.492;-97.520;2023-09-19T02:12:59;96921.07;;;27.74;25.04
43480;BME280;29067;35.492;-97.520;2023-09-19T02:15:28;96921.03;;;27.94;24.64
43480;BME280;29067;35.492;-97.520;2023-09-19T02:17:56;96922.81;;;27.46;24.81
43480;BME280;29067;35.492;-97.520;2023-09-19T02:20:26;96920.31;;;27.55;25.04
43480;BME280;29067;35.492;-97.520;2023-09-19T02:22:55;96920.34;;;26.91;25.17
43480;BME280;29067;35.492;-97.520;2023-09-19T02:25:23;96921.68;;;26.88;25.20
43480;BME280;29067;35.492;-97.520;2023-09-19T02:27:51;96919.80;;;27.22;25.11
43480;BME280;29067;35.492;-97.520;2023-09-19T02:30:19;96920.63;;;26.77;25.42
43480;BME280;29067;35.492;-97.520;2023-09-19T02:32:48;96916.71;;;27.74;24.93
43480;BME280;29067;35.492;-97.520;2023-09-19T02:35:17;96919.58;;;26.26;25.41
43480;BME280;29067;35.492;-97.520;2023-09-19T02:37:45;96920.41;;;27.12;25.53
43480;BME280;29067;35.492;-97.520;2023-09-19T02:40:13;96924.11;;;26.26;26.06
43480;BME280;29067;35.492;-97.520;2023-09-19T02:42:43;96923.06;;;25.74;26.31
43480;BME280;29067;35.492;-97.520;2023-09-19T02:45:12;96923.36;;;27.25;25.32
43480;BME280;29067;35.492;-97.520;2023-09-19T02:47:41;96924.41;;;26.18;26.48
43480;BME280;29067;35.492;-97.520;2023-09-19T02:50:09;96920.41;;;26.90;26.13
43480;BME280;29067;35.492;-97.520;2023-09-19T02:52:37;96918.17;;;27.42;25.96
43480;BME280;29067;35.492;-97.520;2023-09-19T02:55:05;96923.01;;;25.48;26.92
43480;BME280;29067;35.492;-97.520;2023-09-19T02:57:33;96925.29;;;26.19;26.63
43480;BME280;29067;35.492;-97.520;2023-09-19T03:00:01;96927.55;;;25.65;26.96
43480;BME280;29067;35.492;-97.520;2023-09-19T03:02:29;96928.31;;;26.61;26.51
43480;BME280;29067;35.492;-97.520;2023-09-19T03:04:57;96927.24;;;26.08;26.54
43480;BME280;29067;35.492;-97.520;2023-09-19T03:07:24;96927.05;;;26.66;26.50
43480;BME280;29067;35.492;-97.520;2023-09-19T03:09:53;96928.51;;;25.28;27.53
43480;BME280;29067;35.492;-97.520;2023-09-19T03:12:21;96929.03;;;25.53;27.28
43480;BME280;29067;35.492;-97.520;2023-09-19T03:14:49;96931.97;;;25.50;27.33
43480;BME280;29067;35.492;-97.520;2023-09-19T03:17:17;96934.96;;;26.11;26.82
43480;BME280;29067;35.492;-97.520;2023-09-19T03:19:45;96934.04;;;25.11;27.61
43480;BME280;29067;35.492;-97.520;2023-09-19T03:22:14;96935.70;;;24.95;27.92
43480;BME280;29067;35.492;-97.520;2023-09-19T03:24:42;96932.04;;;26.29;27.19
43480;BME280;29067;35.492;-97.520;2023-09-19T03:27:10;96938.97;;;25.99;27.68
43480;BME280;29067;35.492;-97.520;2023-09-19T03:29:38;96933.05;;;24.46;28.42
43480;BME280;29067;35.492;-97.520;2023-09-19T03:32:06;96932.19;;;24.80;28.36
43480;BME280;29067;35.492;-97.520;2023-09-19T03:34:34;96924.86;;;25.41;27.88
43480;BME280;29067;35.492;-97.520;2023-09-19T03:37:04;96927.53;;;24.69;28.29
43480;BME280;29067;35.492;-97.520;2023-09-19T03:39:32;96923.99;;;24.79;28.45
43480;BME280;29067;35.492;-97.520;2023-09-19T03:42:00;96924.95;;;24.56;28.45
43480;BME280;29067;35.492;-97.520;2023-09-19T03:44:29;96926.69;;;24.10;28.69
43480;BME280;29067;35.492;-97.520;2023-09-19T03:46:57;96930.56;;;24.20;28.97
43480;BME280;29067;35.492;-97.520;2023-09-19T03:49:25;96926.92;;;24.46;28.76
43480;BME280;29067;35.492;-97.520;2023-09-19T03:51:53;96926.70;;;25.58;28.52
43480;BME280;29067;35.492;-97.520;2023-09-19T03:54:21;96929.92;;;24.04;29.19
43480;BME280;29067;35.492;-97.520;2023-09-19T03:56:49;96926.59;;;24.46;28.47
43480;BME280;29067;35.492;-97.520;2023-09-19T03:59:18;96928.21;;;23.66;29.09
43480;BME280;29067;35.492;-97.520;2023-09-19T04:01:46;96929.41;;;25.28;28.35
43480;BME280;29067;35.492;-97.520;2023-09-19T04:04:14;96933.12;;;24.97;28.74
43480;BME280;29067;35.492;-97.520;2023-09-19T04:06:42;96934.40;;;24.38;28.75
43480;BME280;29067;35.492;-97.520;2023-09-19T04:09:10;96928.04;;;24.18;28.92
43480;BME280;29067;35.492;-97.520;2023-09-19T04:11:38;96927.36;;;24.10;28.93
43480;BME280;29067;35.492;-97.520;2023-09-19T04:14:06;96923.58;;;25.61;28.53
43480;BME280;29067;35.492;-97.520;2023-09-19T04:16:33;96927.65;;;23.84;28.99
43480;BME280;29067;35.492;-97.520;2023-09-19T04:19:01;96920.04;;;24.63;28.63
43480;BME280;29067;35.492;-97.520;2023-09-19T04:21:30;96927.67;;;23.51;29.08
43480;BME280;29067;35.492;-97.520;2023-09-19T04:23:57;96921.97;;;25.04;28.73
43480;BME280;29067;35.492;-97.520;2023-09-19T04:26:25;96918.26;;;25.43;28.63
43480;BME280;29067;35.492;-97.520;2023-09-19T04:28:53;96920.26;;;24.79;28.89
43480;BME280;29067;35.492;-97.520;2023-09-19T04:31:21;96923.64;;;24.13;28.88
43480;BME280;29067;35.492;-97.520;2023-09-19T04:33:49;96923.60;;;23.57;29.39
43480;BME280;29067;35.492;-97.520;2023-09-19T04:36:17;96920.88;;;24.04;29.15
43480;BME280;29067;35.492;-97.520;2023-09-19T04:38:45;96918.24;;;23.47;29.38
43480;BME280;29067;35.492;-97.520;2023-09-19T04:41:14;96921.00;;;24.63;28.32
43480;BME280;29067;35.492;-97.520;2023-09-19T04:43:41;96922.45;;;24.23;28.78
43480;BME280;29067;35.492;-97.520;2023-09-19T04:46:09;96920.11;;;23.85;28.55
43480;BME280;29067;35.492;-97.520;2023-09-19T04:48:37;96918.75;;;23.66;28.76
43480;BME280;29067;35.492;-97.520;2023-09-19T04:51:05;96911.89;;;24.79;28.05
43480;BME280;29067;35.492;-97.520;2023-09-19T04:53:33;96912.89;;;25.30;27.97
43480;BME280;29067;35.492;-97.520;2023-09-19T04:56:01;96910.63;;;26.08;27.35
43480;BME280;29067;35.492;-97.520;2023-09-19T04:58:29;96911.71;;;23.75;28.69
43480;BME280;29067;35.492;-97.520;2023-09-19T05:00:57;96913.81;;;24.14;28.51
43480;BME280;29067;35.492;-97.520;2023-09-19T05:03:25;96910.36;;;23.94;28.73
43480;BME280;29067;35.492;-97.520;2023-09-19T05:05:53;96911.58;;;24.40;28.53
43480;BME280;29067;35.492;-97.520;2023-09-19T05:08:21;96907.33;;;24.77;28.07
43480;BME280;29067;35.492;-97.520;2023-09-19T05:10:49;96907.05;;;23.47;28.73
43480;BME280;29067;35.492;-97.520;2023-09-19T05:13:17;96904.29;;;24.44;28.11
43480;BME280;29067;35.492;-97.520;2023-09-19T05:15:45;96898.78;;;25.72;27.75
43480;BME280;29067;35.492;-97.520;2023-09-19T05:18:13;96893.01;;;25.07;27.78
43480;BME280;29067;35.492;-97.520;2023-09-19T05:20:41;96889.61;;;24.72;27.80
43480;BME280;29067;35.492;-97.520;2023-09-19T05:23:09;96883.19;;;24.53;28.24
43480;BME280;29067;35.492;-97.520;2023-09-19T05:25:38;96881.36;;;25.44;27.79
43480;BME280;29067;35.492;-97.520;2023-09-19T05:28:07;96883.91;;;25.50;27.65
43480;BME280;29067;35.492;-97.520;2023-09-19T05:30:36;96876.67;;;25.47;27.37
43480;BME280;29067;35.492;-97.520;2023-09-19T05:33:04;96884.79;;;24.47;28.41
43480;BME280;29067;35.492;-97.520;2023-09-19T05:35:33;96880.88;;;24.02;28.35
43480;BME280;29067;35.492;-97.520;2023-09-19T05:38:00;96877.97;;;24.79;28.12
43480;BME280;29067;35.492;-97.520;2023-09-19T05:40:29;96877.99;;;25.39;27.88
43480;BME280;29067;35.492;-97.520;2023-09-19T05:42:57;96875.20;;;24.07;28.05
43480;BME280;29067;35.492;-97.520;2023-09-19T05:45:25;96875.37;;;23.12;28.86
43480;BME280;29067;35.492;-97.520;2023-09-19T05:47:54;96873.32;;;24.62;28.23
43480;BME280;29067;35.492;-97.520;2023-09-19T05:50:22;96876.23;;;22.50;29.51
43480;BME280;29067;35.492;-97.520;2023-09-19T05:52:54;96875.90;;;23.50;29.46
43480;BME280;29067;35.492;-97.520;2023-09-19T05:55:23;96885.66;;;23.52;28.94
43480;BME280;29067;35.492;-97.520;2023-09-19T05:57:51;96895.43;;;23.73;28.84
43480;BME280;29067;35.492;-97.520;2023-09-19T06:00:20;96894.77;;;23.94;28.76
43480;BME280;29067;35.492;-97.520;2023-09-19T06:02:51;96886.03;;;23.75;29.18
43480;BME280;29067;35.492;-97.520;2023-09-19T06:05:20;96887.75;;;23.55;29.44
43480;BME280;29067;35.492;-97.520;2023-09-19T06:07:49;96885.30;;;23.26;29.55
43480;BME280;29067;35.492;-97.520;2023-09-19T06:10:17;96892.25;;;24.01;28.98
43480;BME280;29067;35.492;-97.520;2023-09-19T06:12:46;96884.14;;;23.72;29.25
43480;BME280;29067;35.492;-97.520;2023-09-19T06:15:15;96880.85;;;22.49;30.13
43480;BME280;29067;35.492;-97.520;2023-09-19T06:17:46;96880.56;;;23.58;29.52
43480;BME280;29067;35.492;-97.520;2023-09-19T06:20:15;96877.91;;;23.15;29.93
43480;BME280;29067;35.492;-97.520;2023-09-19T06:22:44;96874.20;;;23.26;29.77
43480;BME280;29067;35.492;-97.520;2023-09-19T06:25:14;96868.93;;;23.54;29.68
43480;BME280;29067;35.492;-97.520;2023-09-19T06:27:42;96867.67;;;23.18;30.00
43480;BME280;29067;35.492;-97.520;2023-09-19T06:30:11;96869.49;;;22.93;30.55
43480;BME280;29067;35.492;-97.520;2023-09-19T06:32:39;96872.54;;;24.18;29.56
43480;BME280;29067;35.492;-97.520;2023-09-19T06:35:08;96874.28;;;23.53;29.75
43480;BME280;29067;35.492;-97.520;2023-09-19T06:37:36;96872.34;;;22.80;30.24
43480;BME280;29067;35.492;-97.520;2023-09-19T06:40:07;96865.65;;;23.22;30.43
43480;BME280;29067;35.492;-97.520;2023-09-19T06:42:35;96863.66;;;23.03;30.28
43480;BME280;29067;35.492;-97.520;2023-09-19T06:45:05;96862.15;;;23.10;30.04
43480;BME280;29067;35.492;-97.520;2023-09-19T06:47:33;96861.75;;;22.87;30.54
43480;BME280;29067;35.492;-97.520;2023-09-19T06:50:01;96859.59;;;23.59;30.77
43480;BME280;29067;35.492;-97.520;2023-09-19T06:52:29;96861.62;;;24.11;29.69
43480;BME280;29067;35.492;-97.520;2023-09-19T06:54:58;96859.15;;;24.39;29.15
43480;BME280;29067;35.492;-97.520;2023-09-19T06:57:26;96862.76;;;23.16;30.09
43480;BME280;29067;35.492;-97.520;2023-09-19T06:59:54;96860.07;;;22.53;30.65
43480;BME280;29067;35.492;-97.520;2023-09-19T07:02:22;96854.07;;;23.49;30.36
43480;BME280;29067;35.492;-97.520;2023-09-19T07:04:50;96857.11;;;21.90;31.38
43480;BME280;29067;35.492;-97.520;2023-09-19T07:07:18;96851.84;;;22.54;30.86
43480;BME280;29067;35.492;-97.520;2023-09-19T07:09:45;96853.71;;;23.07;30.87
43480;BME280;29067;35.492;-97.520;2023-09-19T07:12:14;96853.28;;;22.78;30.89
43480;BME280;29067;35.492;-97.520;2023-09-19T07:14:42;96853.90;;;22.43;31.24
43480;BME280;29067;35.492;-97.520;2023-09-19T07:17:11;96853.99;;;22.73;30.87
43480;BME280;29067;35.492;-97.520;2023-09-19T07:19:38;96853.65;;;22.27;31.48
43480;BME280;29067;35.492;-97.520;2023-09-19T07:22:06;96849.75;;;22.37;31.33
43480;BME280;29067;35.492;-97.520;2023-09-19T07:24:33;96852.06;;;21.05;32.08
43480;BME280;29067;35.492;-97.520;2023-09-19T07:27:01;96853.70;;;22.32;31.42
43480;BME280;29067;35.492;-97.520;2023-09-19T07:29:29;96856.93;;;22.12;31.66
43480;BME280;29067;35.492;-97.520;2023-09-19T07:31:57;96854.81;;;21.95;31.94
43480;BME280;29067;35.492;-97.520;2023-09-19T07:34:24;96858.16;;;21.39;33.00
43480;BME280;29067;35.492;-97.520;2023-09-19T07:36:52;96844.57;;;22.61;31.80
43480;BME280;29067;35.492;-97.520;2023-09-19T07:39:20;96848.86;;;20.97;32.62
43480;BME280;29067;35.492;-97.520;2023-09-19T07:41:49;96849.40;;;22.07;32.34
43480;BME280;29067;35.492;-97.520;2023-09-19T07:44:17;96842.87;;;22.64;31.55
43480;BME280;29067;35.492;-97.520;2023-09-19T07:46:47;96844.64;;;21.31;32.80
43480;BME280;29067;35.492;-97.520;2023-09-19T07:49:14;96848.97;;;21.29;32.39
43480;BME280;29067;35.492;-97.520;2023-09-19T07:51:43;96853.69;;;20.74;33.41
43480;BME280;29067;35.492;-97.520;2023-09-19T07:54:10;96846.03;;;21.00;33.99
43480;BME280;29067;35.492;-97.520;2023-09-19T07:56:38;96843.39;;;20.94;33.99
43480;BME280;29067;35.492;-97.520;2023-09-19T07:59:06;96839.14;;;20.37;33.96
43480;BME280;29067;35.492;-97.520;2023-09-19T08:01:34;96833.72;;;22.33;32.98
43480;BME280;29067;35.492;-97.520;2023-09-19T08:04:03;96834.45;;;21.56;33.56
43480;BME280;29067;35.492;-97.520;2023-09-19T08:06:31;96823.86;;;20.96;34.16
43480;BME280;29067;35.492;-97.520;2023-09-19T08:08:59;96822.51;;;20.83;34.61
43480;BME280;29067;35.492;-97.520;2023-09-19T08:11:27;96816.32;;;21.66;33.14
43480;BME280;29067;35.492;-97.520;2023-09-19T08:13:54;96817.99;;;20.88;34.25
43480;BME280;29067;35.492;-97.520;2023-09-19T08:16:23;96816.20;;;21.52;33.60
43480;BME280;29067;35.492;-97.520;2023-09-19T08:18:51;96813.83;;;20.54;34.23
43480;BME280;29067;35.492;-97.520;2023-09-19T08:21:18;96808.97;;;21.54;33.44
43480;BME280;29067;35.492;-97.520;2023-09-19T08:23:46;96811.58;;;21.76;33.21
43480;BME280;29067;35.492;-97.520;2023-09-19T08:26:14;96816.64;;;21.78;33.46
43480;BME280;29067;35.492;-97.520;2023-09-19T08:28:42;96818.44;;;22.64;32.85
43480;BME280;29067;35.492;-97.520;2023-09-19T08:31:10;96823.92;;;21.17;33.34
43480;BME280;29067;35.492;-97.520;2023-09-19T08:33:39;96826.57;;;21.89;33.01
43480;BME280;29067;35.492;-97.520;2023-09-19T08:36:08;96828.77;;;21.26;33.96
43480;BME280;29067;35.492;-97.520;2023-09-19T08:38:36;96830.17;;;20.75;34.11
43480;BME280;29067;35.492;-97.520;2023-09-19T08:41:07;96823.93;;;22.03;33.20
43480;BME280;29067;35.492;-97.520;2023-09-19T08:43:36;96826.52;;;21.81;33.23
43480;BME280;29067;35.492;-97.520;2023-09-19T08:46:12;96830.98;;;21.23;33.18
43480;BME280;29067;35.492;-97.520;2023-09-19T08:48:46;96833.63;;;22.02;33.22
43480;BME280;29067;35.492;-97.520;2023-09-19T08:51:21;96834.00;;;21.21;33.31
43480;BME280;29067;35.492;-97.520;2023-09-19T08:53:58;96827.49;;;22.75;32.51
43480;BME280;29067;35.492;-97.520;2023-09-19T08:56:30;96828.67;;;21.74;33.23
43480;BME280;29067;35.492;-97.520;2023-09-19T08:59:03;96828.10;;;22.94;32.75
43480;BME280;29067;35.492;-97.520;2023-09-19T09:01:32;96835.86;;;21.80;33.81
43480;BME280;29067;35.492;-97.520;2023-09-19T09:04:02;96847.73;;;22.62;32.39
43480;BME280;29067;35.492;-97.520;2023-09-19T09:06:30;96848.23;;;21.06;33.82
43480;BME280;29067;35.492;-97.520;2023-09-19T09:08:59;96857.39;;;22.11;32.79
43480;BME280;29067;35.492;-97.520;2023-09-19T09:11:27;96861.48;;;21.80;34.08
43480;BME280;29067;35.492;-97.520;2023-09-19T09:13:55;96868.12;;;22.16;33.49
43480;BME280;29067;35.492;-97.520;2023-09-19T09:16:24;96884.02;;;21.64;33.65
43480;BME280;29067;35.492;-97.520;2023-09-19T09:18:53;96889.05;;;21.27;34.30
43480;BME280;29067;35.492;-97.520;2023-09-19T09:21:21;96891.77;;;21.58;34.29
43480;BME280;29067;35.492;-97.520;2023-09-19T09:23:50;96885.68;;;22.65;33.82
43480;BME280;29067;35.492;-97.520;2023-09-19T09:26:40;96878.92;;;21.99;34.43
43480;BME280;29067;35.492;-97.520;2023-09-19T09:29:09;96873.43;;;21.98;33.45
43480;BME280;29067;35.492;-97.520;2023-09-19T09:31:36;96880.90;;;21.93;33.81
43480;BME280;29067;35.492;-97.520;2023-09-19T09:34:04;96879.05;;;22.20;33.91
43480;BME280;29067;35.492;-97.520;2023-09-19T09:36:35;96878.41;;;20.29;35.92
43480;BME280;29067;35.492;-97.520;2023-09-19T09:39:04;96870.24;;;22.00;34.91
43480;BME280;29067;35.492;-97.520;2023-09-19T09:41:37;96860.70;;;19.68;38.71
43480;BME280;29067;35.492;-97.520;2023-09-19T09:44:13;96857.32;;;20.86;37.84
43480;BME280;29067;35.492;-97.520;2023-09-19T09:46:43;96857.57;;;20.99;40.60
43480;BME280;29067;35.492;-97.520;2023-09-19T09:49:11;96859.95;;;21.52;39.98
43480;BME280;29067;35.492;-97.520;2023-09-19T09:51:40;96858.16;;;20.75;42.68
43480;BME280;29067;35.492;-97.520;2023-09-19T09:54:11;96853.54;;;19.37;43.73
43480;BME280;29067;35.492;-97.520;2023-09-19T09:56:53;96843.58;;;19.54;45.06
43480;BME280;29067;35.492;-97.520;2023-09-19T09:59:22;96846.88;;;18.66;49.43
43480;BME280;29067;35.492;-97.520;2023-09-19T10:01:50;96850.12;;;18.85;49.93
43480;BME280;29067;35.492;-97.520;2023-09-19T10:04:29;96868.40;;;18.62;54.04
43480;BME280;29067;35.492;-97.520;2023-09-19T10:06:57;96865.95;;;18.31;51.64
43480;BME280;29067;35.492;-97.520;2023-09-19T10:09:26;96889.81;;;18.39;55.74
43480;BME280;29067;35.492;-97.520;2023-09-19T10:12:03;96881.35;;;18.75;54.49
43480;BME280;29067;35.492;-97.520;2023-09-19T10:14:37;96865.81;;;16.98;58.62
43480;BME280;29067;35.492;-97.520;2023-09-19T10:17:06;96846.97;;;16.54;59.68
43480;BME280;29067;35.492;-97.520;2023-09-19T10:19:40;96856.15;;;16.41;60.57
43480;BME280;29067;35.492;-97.520;2023-09-19T10:22:10;96859.97;;;17.53;57.16
43480;BME280;29067;35.492;-97.520;2023-09-19T10:24:40;96844.15;;;17.75;55.12
43480;BME280;29067;35.492;-97.520;2023-09-19T10:27:08;96841.03;;;17.26;57.24
43480;BME280;29067;35.492;-97.520;2023-09-19T10:29:36;96843.35;;;17.67;58.83
43480;BME280;29067;35.492;-97.520;2023-09-19T10:32:07;96850.94;;;16.66;60.81
43480;BME280;29067;35.492;-97.520;2023-09-19T10:34:36;96842.66;;;17.11;55.02
43480;BME280;29067;35.492;-97.520;2023-09-19T10:37:05;96853.93;;;17.70;57.87
43480;BME280;29067;35.492;-97.520;2023-09-19T10:39:33;96862.03;;;16.70;58.27
43480;BME280;29067;35.492;-97.520;2023-09-19T10:42:03;96872.67;;;18.24;55.01
43480;BME280;29067;35.492;-97.520;2023-09-19T10:44:34;96870.41;;;17.24;57.99
43480;BME280;29067;35.492;-97.520;2023-09-19T10:47:05;96875.42;;;17.28;55.97
43480;BME280;29067;35.492;-97.520;2023-09-19T10:49:34;96863.58;;;17.95;54.64
43480;BME280;29067;35.492;-97.520;2023-09-19T10:52:03;96836.01;;;17.18;55.36
43480;BME280;29067;35.492;-97.520;2023-09-19T10:54:34;96832.11;;;17.65;55.56
43480;BME280;29067;35.492;-97.520;2023-09-19T10:57:03;96833.47;;;17.11;55.21
43480;BME280;29067;35.492;-97.520;2023-09-19T10:59:31;96835.96;;;17.08;54.48
43480;BME280;29067;35.492;-97.520;2023-09-19T11:03:33;96863.17;;;17.66;53.19
43480;BME280;29067;35.492;-97.520;2023-09-19T11:06:04;96868.81;;;18.23;52.71
43480;BME280;29067;35.492;-97.520;2023-09-19T11:08:56;96882.36;;;18.14;50.22
43480;BME280;29067;35.492;-97.520;2023-09-19T11:11:43;96894.00;;;18.27;51.69
43480;BME280;29067;35.492;-97.520;2023-09-19T11:14:48;96904.33;;;16.99;52.86
43480;BME280;29067;35.492;-97.520;2023-09-19T11:17:32;96906.78;;;18.11;50.58
43480;BME280;29067;35.492;-97.520;2023-09-19T11:20:32;96924.57;;;19.87;47.04
43480;BME280;29067;35.492;-97.520;2023-09-19T11:23:32;96941.21;;;18.35;49.96
43480;BME280;29067;35.492;-97.520;2023-09-19T11:26:01;96941.97;;;19.16;47.54
43480;BME280;29067;35.492;-97.520;2023-09-19T11:28:30;96946.75;;;19.43;46.03
43480;BME280;29067;35.492;-97.520;2023-09-19T11:31:43;96946.61;;;18.65;47.77
43480;BME280;29067;35.492;-97.520;2023-09-19T11:35:16;96947.61;;;18.91;46.67
43480;BME280;29067;35.492;-97.520;2023-09-19T11:38:14;96957.86;;;19.81;47.51
43480;BME280;29067;35.492;-97.520;2023-09-19T11:40:45;96947.08;;;18.81;48.99
43480;BME280;29067;35.492;-97.520;2023-09-19T11:43:31;96945.34;;;18.98;49.02
43480;BME280;29067;35.492;-97.520;2023-09-19T11:46:04;96936.88;;;18.41;49.69
43480;BME280;29067;35.492;-97.520;2023-09-19T11:48:33;96936.93;;;19.03;48.63
43480;BME280;29067;35.492;-97.520;2023-09-19T11:51:11;96941.56;;;18.52;49.75
43480;BME280;29067;35.492;-97.520;2023-09-19T11:53:40;96928.22;;;18.68;51.18
43480;BME280;29067;35.492;-97.520;2023-09-19T11:56:08;96927.98;;;18.17;49.46
43480;BME280;29067;35.492;-97.520;2023-09-19T11:58:38;96927.16;;;19.74;49.74
43480;BME280;29067;35.492;-97.520;2023-09-19T12:01:08;96930.46;;;18.51;50.49
43480;BME280;29067;35.492;-97.520;2023-09-19T12:03:43;96930.56;;;18.79;53.68
43480;BME280;29067;35.492;-97.520;2023-09-19T12:06:13;96931.00;;;18.86;53.55
43480;BME280;29067;35.492;-97.520;2023-09-19T12:08:42;96933.00;;;19.18;51.79
43480;BME280;29067;35.492;-97.520;2023-09-19T12:11:15;96925.00;;;17.18;53.87
43480;BME280;29067;35.492;-97.520;2023-09-19T12:13:44;96924.20;;;17.04;57.09
43480;BME280;29067;35.492;-97.520;2023-09-19T12:16:14;96900.47;;;16.50;55.31
43480;BME280;29067;35.492;-97.520;2023-09-19T12:18:43;96896.41;;;16.09;56.15
43480;BME280;29067;35.492;-97.520;2023-09-19T12:21:28;96894.22;;;16.77;56.92
43480;BME280;29067;35.492;-97.520;2023-09-19T12:24:04;96879.75;;;17.08;54.85
43480;BME280;29067;35.492;-97.520;2023-09-19T12:26:39;96882.90;;;17.21;54.74
43480;BME280;29067;35.492;-97.520;2023-09-19T12:29:13;96885.42;;;17.16;56.48
43480;BME280;29067;35.492;-97.520;2023-09-19T12:31:50;96889.26;;;17.50;53.94
43480;BME280;29067;35.492;-97.520;2023-09-19T12:34:21;96876.48;;;18.14;52.87
43480;BME280;29067;35.492;-97.520;2023-09-19T12:36:49;96875.75;;;18.27;54.68
43480;BME280;29067;35.492;-97.520;2023-09-19T12:39:31;96887.74;;;17.09;55.63
43480;BME280;29067;35.492;-97.520;2023-09-19T12:41:58;96892.18;;;17.11;56.57
43480;BME280;29067;35.492;-97.520;2023-09-19T12:44:27;96908.04;;;17.01;56.87
43480;BME280;29067;35.492;-97.520;2023-09-19T12:46:56;96920.73;;;19.10;56.15
43480;BME280;29067;35.492;-97.520;2023-09-19T12:49:24;96931.50;;;18.77;57.13
43480;BME280;29067;35.492;-97.520;2023-09-19T12:51:58;96940.16;;;18.02;56.30
43480;BME280;29067;35.492;-97.520;2023-09-19T12:54:38;96937.54;;;18.01;59.18
43480;BME280;29067;35.492;-97.520;2023-09-19T12:57:06;96935.15;;;17.29;58.97
43480;BME280;29067;35.492;-97.520;2023-09-19T12:59:34;96944.33;;;17.07;58.22